This is the latest recevied weather packets stored in our database for station/object K2ATL. If no packets are shown the sender has not sent any weather packets the latest 10 day(s).
| Time | Temp. | Humidity | Pressure | Rain* | Wind** | Luminosity | Snow |
|---|---|---|---|---|---|---|---|
| 1777908801 | 15.56° C | 51% | 1103 hPa | 0 mm | - | 798 W/m² | - |
| 1777908497 | 15° C | 51% | 1103 hPa | 0 mm | - | 791 W/m² | - |
| 1777908194 | 15.56° C | 49% | 1103 hPa | 0 mm | - | 788 W/m² | - |
| 1777907890 | 15° C | 52% | 1103 hPa | 0 mm | - | 787 W/m² | - |
| 1777907586 | 13.89° C | 53% | 1103.1 hPa | 0 mm | - | 758 W/m² | - |
| 1777907282 | 13.89° C | 54% | 1103.1 hPa | 0 mm | - | 763 W/m² | - |
| 1777906979 | 13.89° C | 51% | 1103.1 hPa | 0 mm | - | 706 W/m² | - |
| 1777906676 | 13.89° C | 53% | 1103.1 hPa | 0 mm | - | 702 W/m² | - |
| 1777906372 | 13.89° C | 52% | 1103 hPa | 0 mm | - | 643 W/m² | - |
| 1777906070 | 14.44° C | 52% | 1103.3 hPa | 0 mm | - | 647 W/m² | - |
| 1777905766 | 15° C | 50% | 1103.2 hPa | 0 mm | - | 658 W/m² | - |
| 1777905463 | 13.89° C | 52% | 1103.3 hPa | 0 mm | - | 672 W/m² | - |
| 1777905160 | 13.33° C | 53% | 1103.2 hPa | 0 mm | - | 590 W/m² | - |
| 1777904857 | 13.89° C | 52% | 1103.2 hPa | 0 mm | - | 512 W/m² | - |
| 1777904555 | 13.33° C | 52% | 1103.2 hPa | 0 mm | - | 590 W/m² | - |
| 1777904251 | 12.78° C | 53% | 1103.1 hPa | 0 mm | - | 558 W/m² | - |
| 1777903949 | 13.33° C | 54% | 1103.2 hPa | 0 mm | - | 583 W/m² | - |
| 1777903645 | 13.33° C | 55% | 1103.1 hPa | 0 mm | - | 532 W/m² | - |
| 1777903340 | 12.22° C | 58% | 1103.2 hPa | 0 mm | - | 525 W/m² | - |
| 1777903038 | 12.78° C | 54% | 1103.2 hPa | 0 mm | - | 528 W/m² | - |
| 1777902734 | 12.78° C | 55% | 1103.1 hPa | 0 mm | - | 519 W/m² | - |
| 1777902432 | 12.22° C | 55% | 1103.1 hPa | 0 mm | - | 494 W/m² | - |
| 1777902128 | 12.78° C | 54% | 1103.2 hPa | 0 mm | - | 476 W/m² | - |
| 1777901827 | 12.22° C | 52% | 1103.1 hPa | 0 mm | - | 453 W/m² | - |
| 1777901524 | 12.22° C | 52% | 1103.3 hPa | 0 mm | - | 428 W/m² | - |
* Rain latest hour (hover to see other rain measurements)
** Current wind speed in m/s (hover to see current wind gust speed)